Time;durP1;ratioP1;P1;durP2;ratioP2;P2;SDS_P1;SDS_P2;PMS_P1;PMS_P2;Temp;Humidity;BMP_temperature;BMP_pressure;BME280_temperature;BME280_humidity;BME280_pressure;Samples;Min_cycle;Max_cycle;Signal;HPM_P1;HPM_P2
2022/11/25 00:00:02;;;;;;;2.72;1.92;;;8.00;99.90;;;;;;5148364;28;20389;-78
2022/11/25 00:02:41;;;;;;;3.13;1.60;;;8.00;99.90;;;;;;5149762;28;20040;-76
2022/11/25 00:05:17;;;;;;;3.42;1.75;;;8.00;99.90;;;;;;5140772;28;20058;-76
2022/11/25 00:07:50;;;;;;;1.85;1.60;;;8.00;99.90;;;;;;5167083;28;20030;-74
2022/11/25 00:10:37;;;;;;;2.13;1.00;;;8.00;99.90;;;;;;5148498;28;20075;-74
2022/11/25 00:13:08;;;;;;;2.15;1.33;;;8.00;99.90;;;;;;5126336;28;20053;-75
2022/11/25 00:15:39;;;;;;;5.25;1.73;;;7.90;99.90;;;;;;5155597;28;20032;-74
2022/11/25 00:18:16;;;;;;;4.95;1.30;;;7.80;99.90;;;;;;5166215;28;20034;-76
2022/11/25 00:20:57;;;;;;;3.58;1.60;;;7.80;99.90;;;;;;5166761;28;20232;-76
2022/11/25 00:23:28;;;;;;;3.50;1.60;;;7.70;99.90;;;;;;5149843;28;20077;-76
2022/11/25 00:26:17;;;;;;;2.45;1.65;;;7.60;99.90;;;;;;5148465;28;20040;-76
2022/11/25 00:28:49;;;;;;;2.72;1.77;;;7.60;99.90;;;;;;5167204;28;20034;-74
2022/11/25 00:31:25;;;;;;;1.98;1.60;;;7.70;99.90;;;;;;5149579;28;20049;-74
2022/11/25 00:34:08;;;;;;;4.05;1.98;;;7.70;99.90;;;;;;5149726;28;20030;-77
2022/11/25 00:36:41;;;;;;;5.00;1.70;;;7.80;99.90;;;;;;5166092;28;20030;-74
2022/11/25 00:39:23;;;;;;;2.78;1.38;;;7.90;99.90;;;;;;5162247;28;20039;-74
2022/11/25 00:44:46;;;;;;;2.00;1.35;;;8.00;99.90;;;;;;5161087;28;20040;-76
2022/11/25 00:47:19;;;;;;;2.28;1.52;;;8.00;99.90;;;;;;5124372;28;20042;-75
2022/11/25 00:49:56;;;;;;;4.95;2.10;;;8.00;99.90;;;;;;5149411;28;20048;-75
2022/11/25 00:52:27;;;;;;;2.70;1.50;;;8.00;99.90;;;;;;5149208;28;20049;-76
2022/11/25 00:55:07;;;;;;;3.10;1.30;;;8.00;99.90;;;;;;5132735;28;20038;-76
2022/11/25 00:57:38;;;;;;;3.25;1.48;;;8.00;99.90;;;;;;5149969;28;20035;-75
2022/11/25 01:00:10;;;;;;;3.30;1.75;;;8.00;99.90;;;;;;5174083;23;20034;-74
2022/11/25 01:02:44;;;;;;;5.63;1.50;;;8.10;99.90;;;;;;5179565;23;20054;-63
2022/11/25 01:05:18;;;;;;;3.28;1.80;;;8.00;99.90;;;;;;5097820;28;20128;-64
2022/11/25 01:07:56;;;;;;;1.90;1.40;;;8.00;99.90;;;;;;5107162;28;20022;-66
2022/11/25 01:10:35;;;;;;;1.60;1.38;;;8.10;99.90;;;;;;5118593;28;20048;-62
2022/11/25 01:13:06;;;;;;;2.72;1.45;;;8.10;99.90;;;;;;5103859;28;20219;-65
2022/11/25 01:15:38;;;;;;;2.67;1.52;;;8.10;99.90;;;;;;5126102;28;20039;-62
2022/11/25 01:18:09;;;;;;;6.07;1.90;;;8.00;99.90;;;;;;5126743;28;20023;-62
2022/11/25 01:20:40;;;;;;;4.25;1.55;;;8.00;99.90;;;;;;5126061;28;20031;-65
2022/11/25 01:23:13;;;;;;;2.08;1.50;;;8.00;99.90;;;;;;5141509;28;20030;-65
2022/11/25 01:25:46;;;;;;;6.60;1.63;;;8.00;99.90;;;;;;5125106;28;20038;-65
2022/11/25 01:28:19;;;;;;;1.40;1.30;;;8.00;99.90;;;;;;5124503;28;20054;-66
2022/11/25 01:31:02;;;;;;;1.65;1.42;;;7.90;99.90;;;;;;5122784;29;20267;-63
2022/11/25 01:33:34;;;;;;;2.78;1.30;;;7.80;99.90;;;;;;5102853;28;20038;-66
2022/11/25 01:36:12;;;;;;;4.53;1.52;;;7.80;99.90;;;;;;5109851;28;20041;-63
2022/11/25 01:38:55;;;;;;;1.80;1.08;;;7.70;99.90;;;;;;5126173;28;20038;-64
2022/11/25 01:41:34;;;;;;;1.88;1.10;;;7.70;99.90;;;;;;5107355;28;20050;-64
2022/11/25 01:44:20;;;;;;;1.70;1.10;;;7.70;99.90;;;;;;5142114;28;20031;-64
2022/11/25 01:46:58;;;;;;;3.53;1.15;;;7.60;99.90;;;;;;5110217;28;20033;-63
2022/11/25 01:49:41;;;;;;;1.95;1.10;;;7.60;99.90;;;;;;5110672;28;20049;-63
2022/11/25 01:52:35;;;;;;;2.47;1.38;;;7.60;99.90;;;;;;5109477;28;20056;-64
2022/11/25 01:55:25;;;;;;;3.00;1.23;;;7.60;99.90;;;;;;5143415;28;20103;-64
2022/11/25 01:58:03;;;;;;;2.80;1.10;;;7.60;99.90;;;;;;5109048;28;20040;-62
2022/11/25 02:00:37;;;;;;;4.35;1.20;;;7.70;99.90;;;;;;5108580;28;20044;-63
2022/11/25 02:03:09;;;;;;;2.17;1.10;;;7.70;99.90;;;;;;5124834;28;20049;-64
2022/11/25 02:06:09;;;;;;;3.78;1.65;;;7.70;99.90;;;;;;5131843;28;20038;-64
2022/11/25 02:08:46;;;;;;;2.33;1.52;;;7.70;99.90;;;;;;5109399;28;20315;-64
2022/11/25 02:11:24;;;;;;;1.38;1.27;;;7.60;99.90;;;;;;5125284;28;20045;-65
2022/11/25 02:14:02;;;;;;;3.15;1.63;;;7.60;99.90;;;;;;5106076;28;20049;-62
2022/11/25 02:16:33;;;;;;;1.73;1.25;;;7.60;99.90;;;;;;5142566;28;20328;-62
2022/11/25 02:19:27;;;;;;;3.70;1.08;;;7.60;99.90;;;;;;5126513;28;20029;-61
2022/11/25 02:22:07;;;;;;;3.20;1.63;;;7.60;99.90;;;;;;5124802;28;20046;-63
2022/11/25 02:24:46;;;;;;;3.97;1.33;;;7.60;99.90;;;;;;5106209;29;20045;-61
2022/11/25 02:27:21;;;;;;;1.15;1.00;;;7.60;99.90;;;;;;5091509;28;20049;-65
2022/11/25 02:29:53;;;;;;;2.30;1.20;;;7.60;99.90;;;;;;5116555;29;20205;-62
2022/11/25 02:32:24;;;;;;;3.75;1.33;;;7.70;99.90;;;;;;5093025;28;20061;-64
2022/11/25 02:34:57;;;;;;;2.05;1.00;;;7.70;99.90;;;;;;5125932;28;20041;-63
2022/11/25 02:37:31;;;;;;;3.42;1.65;;;7.60;99.90;;;;;;5109477;28;20065;-65
2022/11/25 02:40:04;;;;;;;1.60;1.20;;;7.60;99.90;;;;;;5109298;28;20049;-63
2022/11/25 02:42:36;;;;;;;1.20;1.05;;;7.60;99.90;;;;;;5122438;28;20037;-66
2022/11/25 02:45:14;;;;;;;3.55;1.67;;;7.60;99.90;;;;;;5126071;28;20066;-64
2022/11/25 02:47:47;;;;;;;1.55;1.02;;;7.50;99.90;;;;;;5125732;28;20031;-67
2022/11/25 02:50:29;;;;;;;3.50;1.20;;;7.30;99.90;;;;;;5106372;28;20041;-66
2022/11/25 02:53:00;;;;;;;1.60;0.88;;;7.20;99.90;;;;;;5140221;28;20034;-62
2022/11/25 02:55:37;;;;;;;3.25;1.27;;;7.10;99.90;;;;;;5125212;28;20391;-65
2022/11/25 02:58:08;;;;;;;1.13;1.02;;;7.00;99.90;;;;;;5124147;28;20042;-61
2022/11/25 03:00:43;;;;;;;3.88;1.27;;;6.90;99.90;;;;;;5108670;28;20042;-62
2022/11/25 03:03:18;;;;;;;3.05;1.38;;;6.90;99.90;;;;;;5122909;28;20027;-64
2022/11/25 03:05:49;;;;;;;2.78;1.00;;;6.80;99.90;;;;;;5115859;28;20047;-63
2022/11/25 03:08:21;;;;;;;3.05;1.20;;;6.80;99.90;;;;;;5125214;28;20023;-64
2022/11/25 03:10:55;;;;;;;4.20;1.27;;;6.80;99.90;;;;;;5109842;28;20043;-63
2022/11/25 03:13:29;;;;;;;3.35;1.33;;;6.80;99.90;;;;;;5098283;28;20199;-62
2022/11/25 03:16:06;;;;;;;;;;;6.80;99.90;;;;;;5107712;28;20045;-66
2022/11/25 03:18:40;;;;;;;2.50;1.20;;;6.90;99.90;;;;;;5108780;28;20202;-62
2022/11/25 03:21:15;;;;;;;2.85;1.40;;;6.90;99.90;;;;;;5108698;28;20049;-62
2022/11/25 03:24:02;;;;;;;4.22;1.20;;;6.90;99.90;;;;;;5089135;29;20042;-65
2022/11/25 03:26:33;;;;;;;3.47;1.20;;;6.90;99.90;;;;;;5105754;29;20035;-64
2022/11/25 03:29:09;;;;;;;1.83;1.00;;;6.90;99.90;;;;;;5105864;29;20031;-62
2022/11/25 03:31:43;;;;;;;3.33;0.90;;;7.00;99.90;;;;;;5105206;28;20224;-63
2022/11/25 03:34:15;;;;;;;3.28;1.00;;;6.90;99.90;;;;;;5142395;28;20211;-62
2022/11/25 03:36:48;;;;;;;1.65;1.20;;;7.00;99.90;;;;;;5126292;28;20027;-62
2022/11/25 03:39:25;;;;;;;2.27;1.40;;;6.90;99.90;;;;;;5109711;28;20049;-63
2022/11/25 03:41:56;;;;;;;3.55;1.25;;;6.90;99.90;;;;;;5109045;28;20242;-63
2022/11/25 03:44:27;;;;;;;1.38;1.05;;;6.80;99.90;;;;;;5091274;28;20038;-64
2022/11/25 03:46:59;;;;;;;2.45;1.02;;;6.70;99.90;;;;;;5106295;28;20039;-62
2022/11/25 03:49:33;;;;;;;3.35;1.25;;;6.70;99.90;;;;;;5079531;29;20086;-63
2022/11/25 03:52:07;;;;;;;;;;;6.60;99.90;;;;;;5098837;28;20026;-62
2022/11/25 03:54:41;;;;;;;3.13;1.20;;;6.50;99.90;;;;;;5115954;28;19906;-63
2022/11/25 03:57:15;;;;;;;2.53;1.45;;;6.40;99.90;;;;;;5112912;28;20043;-61
2022/11/25 03:59:48;;;;;;;4.00;1.65;;;6.40;99.90;;;;;;5126457;28;20034;-62
2022/11/25 04:02:27;;;;;;;2.10;1.37;;;6.30;99.90;;;;;;5111820;28;20642;-64
2022/11/25 04:05:02;;;;;;;2.70;1.35;;;6.20;99.90;;;;;;5103330;28;20097;-62
2022/11/25 04:07:35;;;;;;;1.77;1.20;;;6.20;99.90;;;;;;5112819;28;20049;-63
2022/11/25 04:10:08;;;;;;;3.20;1.05;;;6.10;99.90;;;;;;5112513;28;20047;-64
2022/11/25 04:12:48;;;;;;;3.15;1.13;;;6.10;99.90;;;;;;5128275;28;20015;-62
2022/11/25 04:15:21;;;;;;;2.63;1.25;;;6.00;99.90;;;;;;5112788;28;20035;-65
2022/11/25 04:17:52;;;;;;;2.10;1.33;;;5.90;99.90;;;;;;5121826;28;20035;-64
2022/11/25 04:20:24;;;;;;;4.07;1.40;;;5.90;99.90;;;;;;5122916;28;20115;-63
2022/11/25 04:23:01;;;;;;;2.05;1.23;;;5.90;99.90;;;;;;5114056;28;20043;-62
2022/11/25 04:25:33;;;;;;;7.05;1.30;;;5.80;99.90;;;;;;5129402;28;20030;-62
2022/11/25 04:28:06;;;;;;;3.25;1.05;;;5.80;99.90;;;;;;5130049;28;20031;-64
2022/11/25 04:30:44;;;;;;;3.13;1.20;;;5.80;99.90;;;;;;5101361;29;20039;-64
2022/11/25 04:33:16;;;;;;;2.65;1.27;;;5.80;99.90;;;;;;5110755;28;20296;-62
2022/11/25 04:35:50;;;;;;;1.83;1.50;;;5.80;99.90;;;;;;5112168;28;20041;-65
2022/11/25 04:38:21;;;;;;;3.42;1.25;;;5.70;99.90;;;;;;5111846;28;20051;-63
2022/11/25 04:40:52;;;;;;;2.10;1.15;;;5.80;99.90;;;;;;5111716;28;20045;-61
2022/11/25 04:43:26;;;;;;;3.72;1.00;;;5.80;99.90;;;;;;5109977;28;20041;-64
2022/11/25 04:46:01;;;;;;;1.20;1.10;;;5.80;99.90;;;;;;5107080;28;20034;-63
2022/11/25 04:48:39;;;;;;;2.63;1.38;;;5.70;99.90;;;;;;5111708;28;20034;-64
2022/11/25 04:51:14;;;;;;;2.30;1.25;;;5.70;99.90;;;;;;5113204;28;20034;-62
2022/11/25 04:53:45;;;;;;;7.80;1.52;;;5.70;99.90;;;;;;5122841;28;20044;-65
2022/11/25 04:56:18;;;;;;;3.17;1.42;;;5.70;99.90;;;;;;5111686;28;20188;-62
2022/11/25 05:01:42;;;;;;;1.77;1.08;;;5.60;99.90;;;;;;5144121;28;20050;-66
2022/11/25 05:04:13;;;;;;;3.35;1.30;;;5.60;99.90;;;;;;5103929;28;20046;-63
2022/11/25 05:06:45;;;;;;;1.92;1.10;;;5.60;99.90;;;;;;5112454;28;20319;-63
2022/11/25 05:09:16;;;;;;;2.20;1.00;;;5.60;99.90;;;;;;5144770;28;20030;-67
2022/11/25 05:11:48;;;;;;;2.83;1.50;;;5.60;99.90;;;;;;5099009;28;20042;-66
2022/11/25 05:14:19;;;;;;;1.95;1.27;;;5.50;99.90;;;;;;5090048;28;20039;-62
2022/11/25 05:16:54;;;;;;;5.28;1.55;;;5.40;99.90;;;;;;5144339;28;20035;-64
2022/11/25 05:19:28;;;;;;;2.85;1.75;;;5.20;99.90;;;;;;5095091;28;20365;-62
2022/11/25 05:22:03;;;;;;;3.72;1.42;;;5.20;99.90;;;;;;5111873;29;20051;-64
2022/11/25 05:24:39;;;;;;;4.95;1.50;;;5.20;99.90;;;;;;5103539;28;20031;-66
2022/11/25 05:27:11;;;;;;;4.40;1.42;;;5.20;99.90;;;;;;5110528;28;20045;-66
2022/11/25 05:29:43;;;;;;;3.70;1.02;;;5.30;99.90;;;;;;5120689;28;20046;-64
2022/11/25 05:32:16;;;;;;;4.38;1.77;;;5.40;99.90;;;;;;5120931;28;20349;-62
2022/11/25 05:35:06;;;;;;;1.85;1.30;;;5.60;99.90;;;;;;5123696;28;20044;-64
2022/11/25 05:37:37;;;;;;;7.95;1.88;;;5.60;99.90;;;;;;5110461;28;20042;-63
2022/11/25 05:40:09;;;;;;;1.13;1.02;;;5.60;99.90;;;;;;5127259;28;20018;-62
2022/11/25 05:42:51;;;;;;;5.90;1.77;;;5.50;99.90;;;;;;5124726;28;20058;-63
2022/11/25 05:45:27;;;;;;;2.97;1.35;;;5.50;99.90;;;;;;5126226;28;20042;-62
2022/11/25 05:47:58;;;;;;;5.35;1.30;;;5.40;99.90;;;;;;5109734;28;20035;-65
2022/11/25 05:50:30;;;;;;;3.58;1.20;;;5.40;99.90;;;;;;5109188;28;20312;-64
2022/11/25 05:53:01;;;;;;;8.95;2.00;;;5.40;99.90;;;;;;5109860;28;20381;-62
2022/11/25 05:55:35;;;;;;;2.25;1.20;;;5.30;99.90;;;;;;5125891;28;20034;-63
2022/11/25 05:58:06;;;;;;;2.83;1.35;;;5.30;99.90;;;;;;5143542;28;20026;-62
2022/11/25 06:00:40;;;;;;;4.68;2.30;;;5.20;99.90;;;;;;5142966;28;20312;-65
2022/11/25 06:03:15;;;;;;;5.53;2.00;;;5.10;99.90;;;;;;5107833;28;20037;-63
2022/11/25 06:05:46;;;;;;;2.92;2.20;;;5.10;99.90;;;;;;5115472;28;20296;-64
2022/11/25 06:08:18;;;;;;;7.68;3.90;;;4.90;99.90;;;;;;5138013;28;20015;-66
2022/11/25 06:10:49;;;;;;;11.55;5.15;;;4.80;99.90;;;;;;5122126;28;20343;-64
2022/11/25 06:13:23;;;;;;;11.27;5.70;;;4.70;99.90;;;;;;5125813;28;20201;-66
2022/11/25 06:15:55;;;;;;;5.68;2.95;;;4.60;99.90;;;;;;5105788;28;20060;-66
2022/11/25 06:18:26;;;;;;;6.20;4.07;;;4.40;99.90;;;;;;5125528;28;20038;-65
2022/11/25 06:21:00;;;;;;;9.85;4.93;;;4.40;99.90;;;;;;5108092;28;20050;-69
2022/11/25 06:23:31;;;;;;;8.38;4.43;;;4.30;99.90;;;;;;5123101;28;20030;-64
2022/11/25 06:26:19;;;;;;;3.95;3.10;;;4.30;99.90;;;;;;5143207;28;20037;-67
2022/11/25 06:28:55;;;;;;;7.00;2.70;;;4.30;99.90;;;;;;5122439;28;20335;-65
2022/11/25 06:31:26;;;;;;;3.38;2.83;;;4.30;99.90;;;;;;5124062;28;20038;-62
2022/11/25 06:34:02;;;;;;;8.65;4.13;;;4.40;99.90;;;;;;5105509;29;20030;-62
2022/11/25 06:36:33;;;;;;;8.38;4.10;;;4.40;99.90;;;;;;5121637;29;20015;-65
2022/11/25 06:39:06;;;;;;;9.07;4.32;;;4.50;99.90;;;;;;5106321;29;20041;-65
2022/11/25 06:41:39;;;;;;;9.93;4.88;;;4.40;99.90;;;;;;5117004;28;20069;-65
2022/11/25 06:44:12;;;;;;;6.20;3.15;;;4.30;99.90;;;;;;5078295;29;20362;-62
2022/11/25 06:46:44;;;;;;;5.68;2.90;;;4.40;99.90;;;;;;5118267;28;20045;-63
2022/11/25 06:49:17;;;;;;;6.88;1.90;;;4.40;99.90;;;;;;5123342;28;20057;-65
2022/11/25 06:51:51;;;;;;;6.27;1.87;;;4.50;99.90;;;;;;5106840;28;20047;-67
2022/11/25 06:54:25;;;;;;;5.65;1.75;;;4.60;99.90;;;;;;5106759;28;20057;-61
2022/11/25 06:56:58;;;;;;;14.55;7.88;;;4.70;99.90;;;;;;5101318;28;20041;-61
2022/11/25 06:59:31;;;;;;;1222.75;595.17;;;4.80;99.90;;;;;;5107283;28;20038;-62
2022/11/25 07:02:10;;;;;;;97.05;59.85;;;4.90;99.90;;;;;;5107943;28;20266;-64
2022/11/25 07:04:42;;;;;;;160.73;99.55;;;4.90;99.90;;;;;;5092200;29;20047;-63
2022/11/25 07:07:13;;;;;;;228.90;195.10;;;4.90;99.90;;;;;;5098343;29;20054;-63
2022/11/25 07:09:47;;;;;;;37.38;25.50;;;5.00;99.90;;;;;;5103889;28;20368;-65
2022/11/25 07:12:31;;;;;;;182.75;155.25;;;5.10;99.90;;;;;;5098517;28;20053;-63
2022/11/25 07:15:02;;;;;;;14.63;8.98;;;5.20;99.90;;;;;;5104761;28;20056;-64
2022/11/25 07:17:34;;;;;;;15.55;9.80;;;5.30;99.90;;;;;;5105505;28;20045;-64
2022/11/25 07:20:06;;;;;;;13.05;6.03;;;5.40;99.90;;;;;;5115372;28;20039;-61
2022/11/25 07:22:40;;;;;;;47.45;32.90;;;5.60;99.90;;;;;;5082969;29;20043;-61
2022/11/25 07:25:14;;;;;;;9.20;4.53;;;5.80;99.90;;;;;;5143372;28;20039;-65
2022/11/25 07:27:45;;;;;;;14.50;6.75;;;5.90;99.90;;;;;;5111960;28;20045;-64
2022/11/25 07:30:21;;;;;;;61.20;45.85;;;6.10;99.90;;;;;;5145258;28;20023;-65
2022/11/25 07:33:00;;;;;;;22.98;15.05;;;6.30;99.90;;;;;;5142738;28;20223;-64
2022/11/25 07:35:33;;;;;;;56.17;40.00;;;6.50;99.90;;;;;;5111496;28;20134;-64
2022/11/25 07:38:06;;;;;;;19.98;15.65;;;6.60;99.90;;;;;;5124317;28;20034;-65
2022/11/25 07:40:40;;;;;;;22.50;16.05;;;6.60;99.90;;;;;;5111925;28;20049;-63
2022/11/25 07:43:13;;;;;;;19.08;12.48;;;6.50;99.90;;;;;;5126891;28;20069;-63
2022/11/25 07:45:47;;;;;;;11.97;4.80;;;6.60;99.90;;;;;;5125043;28;20038;-62
2022/11/25 07:48:19;;;;;;;;;;;6.80;99.90;;;;;;5133935;28;20257;-65
2022/11/25 07:50:51;;;;;;;4.90;3.67;;;6.90;99.90;;;;;;5107896;29;19916;-63
2022/11/25 07:53:25;;;;;;;6.38;3.47;;;7.10;99.90;;;;;;5105235;28;20053;-65
2022/11/25 07:56:01;;;;;;;11.45;7.03;;;7.30;99.90;;;;;;5123559;28;20046;-63
2022/11/25 07:58:37;;;;;;;21.65;18.42;;;7.30;99.90;;;;;;5111666;28;20045;-64
2022/11/25 08:01:15;;;;;;;11.10;6.35;;;7.40;99.90;;;;;;5109554;28;20034;-65
2022/11/25 08:03:50;;;;;;;15.05;5.88;;;7.60;99.90;;;;;;5142258;28;20381;-64
2022/11/25 08:06:26;;;;;;;17.73;8.77;;;7.80;99.90;;;;;;5101206;28;20693;-63
2022/11/25 08:08:57;;;;;;;8.73;4.00;;;7.90;99.90;;;;;;5121941;28;20020;-65
2022/11/25 08:11:33;;;;;;;16.35;9.85;;;8.00;99.90;;;;;;5109161;28;20053;-65
2022/11/25 08:14:05;;;;;;;17.77;4.45;;;8.20;99.90;;;;;;5142011;28;20041;-62
2022/11/25 08:16:37;;;;;;;9.68;6.75;;;8.30;99.90;;;;;;5127789;28;20798;-62
2022/11/25 08:19:12;;;;;;;8.88;3.80;;;8.50;99.90;;;;;;5110741;28;20030;-63
2022/11/25 08:21:46;;;;;;;5.00;3.05;;;8.70;99.90;;;;;;5149955;28;20030;-63
2022/11/25 08:24:22;;;;;;;13.55;6.32;;;8.80;99.90;;;;;;5123349;28;20058;-62
2022/11/25 08:26:55;;;;;;;4.57;3.08;;;9.00;99.90;;;;;;5123473;29;20046;-63
2022/11/25 08:29:30;;;;;;;8.53;3.23;;;9.20;99.90;;;;;;5123952;28;20045;-64
2022/11/25 08:32:01;;;;;;;4.47;2.58;;;9.50;99.90;;;;;;5125494;28;20023;-65
2022/11/25 08:34:32;;;;;;;7.75;3.05;;;9.70;99.90;;;;;;5141067;28;20049;-64
2022/11/25 08:37:03;;;;;;;5.97;5.03;;;9.90;99.90;;;;;;5144642;28;20023;-64
2022/11/25 08:39:37;;;;;;;134.38;120.93;;;10.00;99.90;;;;;;5107813;29;20049;-63
2022/11/25 08:42:11;;;;;;;9.40;7.80;;;10.20;99.90;;;;;;5091085;28;20070;-64
2022/11/25 08:44:45;;;;;;;;;;;10.30;99.90;;;;;;5110171;28;20043;-62
2022/11/25 08:47:16;;;;;;;8.02;6.03;;;10.40;99.90;;;;;;5143906;28;20103;-64
2022/11/25 08:49:51;;;;;;;38.95;35.15;;;10.60;99.90;;;;;;5124690;28;20068;-63
2022/11/25 08:52:28;;;;;;;5.35;3.47;;;10.60;99.90;;;;;;5108816;28;20045;-62
2022/11/25 08:55:02;;;;;;;12.50;10.15;;;10.50;83.40;;;;;;5141507;28;20031;-63
2022/11/25 08:57:34;;;;;;;11.05;6.72;;;10.60;99.90;;;;;;5107252;28;20038;-64
2022/11/25 09:00:06;;;;;;;5.90;3.85;;;10.70;99.90;;;;;;5138111;28;20326;-63
2022/11/25 09:02:41;;;;;;;18.55;16.40;;;10.80;99.90;;;;;;5113657;28;20050;-61
2022/11/25 09:05:14;;;;;;;9.48;6.00;;;10.70;99.90;;;;;;5095412;28;20063;-62
2022/11/25 09:07:45;;;;;;;5.22;3.30;;;10.90;58.50;;;;;;5082862;28;20242;-61
2022/11/25 09:10:20;;;;;;;4.72;3.72;;;11.00;99.90;;;;;;5112157;28;20484;-66
2022/11/25 09:12:51;;;;;;;11.68;7.28;;;11.10;99.90;;;;;;5109860;28;20045;-64
2022/11/25 09:15:23;;;;;;;7.28;6.32;;;11.30;99.80;;;;;;5126980;28;20216;-62
2022/11/25 09:18:14;;;;;;;9.88;3.95;;;11.50;99.90;;;;;;5108630;28;20228;-63
2022/11/25 09:20:48;;;;;;;8.00;4.10;;;11.30;63.90;;;;;;5133423;28;20052;-65
2022/11/25 09:23:19;;;;;;;;;;;11.70;99.90;;;;;;5137291;28;20057;-65
2022/11/25 09:25:57;;;;;;;6.03;5.40;;;11.60;99.90;;;;;;5153484;28;19969;-66
2022/11/25 09:28:29;;;;;;;5.55;4.28;;;11.50;55.80;;;;;;5110741;29;20039;-62
2022/11/25 09:31:09;;;;;;;14.95;6.30;;;11.70;12.40;;;;;;5118992;28;20031;-65
2022/11/25 09:33:41;;;;;;;9.57;5.90;;;12.10;27.50;;;;;;5141467;28;20172;-65
2022/11/25 09:36:14;;;;;;;7.50;2.50;;;12.40;1.00;;;;;;5108476;28;20045;-63
2022/11/25 09:38:49;;;;;;;12.38;3.72;;;12.70;1.00;;;;;;5090139;29;20031;-63
2022/11/25 09:46:40;;;;;;;7.22;3.85;;;12.80;1.00;;;;;;5103850;28;20053;-61
2022/11/25 09:47:41;;;;;;;2.30;2.10;;;13.20;1.00;;;;;;5138498;28;20025;-65
2022/11/25 09:50:19;;;;;;;7.13;2.33;;;13.10;1.00;;;;;;5103196;28;20042;-62
2022/11/25 09:53:16;;;;;;;7.03;2.30;;;13.70;1.00;;;;;;5108259;28;20056;-66
2022/11/25 09:55:53;;;;;;;4.60;2.70;;;14.20;99.90;;;;;;5141320;28;20023;-65
2022/11/25 09:58:41;;;;;;;6.63;4.40;;;14.50;99.90;;;;;;5135365;28;20037;-62
2022/11/25 10:01:23;;;;;;;4.35;2.67;;;15.30;99.90;;;;;;5123618;28;20030;-62
2022/11/25 10:04:10;;;;;;;8.55;4.47;;;15.50;99.90;;;;;;5142273;28;20041;-63
2022/11/25 10:06:57;;;;;;;7.65;6.13;;;14.80;99.90;;;;;;5084020;28;20053;-64
2022/11/25 10:09:32;;;;;;;5.03;2.50;;;15.50;99.90;;;;;;5142747;28;20030;-64
2022/11/25 10:12:17;;;;;;;17.52;12.80;;;15.70;99.90;;;;;;5108089;28;20513;-65
2022/11/25 10:14:50;;;;;;;28.70;26.13;;;15.60;99.90;;;;;;5125010;28;20042;-66
2022/11/25 10:17:38;;;;;;;98.77;90.10;;;15.70;99.90;;;;;;5141987;28;20235;-65
2022/11/25 10:20:23;;;;;;;4.45;3.40;;;16.20;99.90;;;;;;5109163;28;20283;-64
2022/11/25 10:22:59;;;;;;;4.95;2.55;;;17.30;99.90;;;;;;5119136;28;20039;-64
2022/11/25 10:25:42;;;;;;;10.63;5.22;;;18.50;99.90;;;;;;5106380;28;20030;-65
2022/11/25 10:28:29;;;;;;;11.75;7.57;;;18.80;99.90;;;;;;5108483;28;20134;-62
2022/11/25 10:31:03;;;;;;;7.78;3.78;;;19.30;99.90;;;;;;5108338;28;20042;-64
2022/11/25 10:33:47;;;;;;;11.40;7.50;;;19.40;99.90;;;;;;5112258;28;20050;-65
2022/11/25 10:36:26;;;;;;;8.05;4.78;;;19.70;99.90;;;;;;5107362;28;20034;-64
2022/11/25 10:39:02;;;;;;;55.08;48.47;;;20.00;99.90;;;;;;5108860;28;20111;-64
2022/11/25 10:41:56;;;;;;;18.08;12.68;;;20.30;99.90;;;;;;5104825;29;20039;-64
2022/11/25 10:44:36;;;;;;;15.18;11.45;;;20.00;99.90;;;;;;5117626;28;20213;-63
2022/11/25 10:47:35;;;;;;;249.93;188.35;;;20.30;99.90;;;;;;5138226;28;20710;-63
2022/11/25 10:50:15;;;;;;;65.80;43.25;;;19.90;99.90;;;;;;5137183;28;20033;-65
2022/11/25 10:53:01;;;;;;;236.45;155.88;;;20.30;99.90;;;;;;5106650;28;20420;-65
2022/11/25 10:55:35;;;;;;;87.53;46.03;;;20.00;99.90;;;;;;5121685;28;20052;-64
2022/11/25 10:58:37;;;;;;;995.60;583.88;;;20.10;99.90;;;;;;5105113;29;20240;-66
2022/11/25 11:01:16;;;;;;;19.63;14.13;;;20.40;99.90;;;;;;5103558;28;20339;-63
2022/11/25 11:04:02;;;;;;;7.18;2.97;;;20.00;99.90;;;;;;5113299;28;20051;-65
2022/11/25 11:06:38;;;;;;;4.50;2.50;;;19.70;99.90;;;;;;5097036;28;20035;-64
2022/11/25 11:09:35;;;;;;;4.65;2.55;;;19.90;99.90;;;;;;5114779;28;20030;-67
2022/11/25 11:12:14;;;;;;;3.25;2.35;;;20.20;99.90;;;;;;5131478;28;20034;-63
2022/11/25 11:14:46;;;;;;;6.03;2.20;;;19.70;99.90;;;;;;5107787;28;20037;-64
2022/11/25 11:17:31;;;;;;;5.68;2.00;;;20.20;99.90;;;;;;5108727;28;20039;-63
2022/11/25 11:20:05;;;;;;;5.38;1.90;;;19.80;99.90;;;;;;5124518;28;20027;-63
2022/11/25 11:23:08;;;;;;;5.63;1.95;;;18.70;99.90;;;;;;5124320;28;20034;-64
2022/11/25 11:25:53;;;;;;;4.95;1.83;;;18.70;99.90;;;;;;5080889;29;20205;-62
2022/11/25 11:28:31;;;;;;;4.03;2.55;;;18.90;99.90;;;;;;5120884;29;20026;-64
2022/11/25 11:31:18;;;;;;;1.65;1.55;;;18.70;99.90;;;;;;5114938;28;20254;-68
2022/11/25 11:34:17;;;;;;;287.70;239.27;;;18.60;99.90;;;;;;5106886;28;20034;-63
2022/11/25 11:37:33;;;;;;;174.30;125.13;;;18.10;99.90;;;;;;5141837;28;20034;-63
2022/11/25 11:40:29;;;;;;;;;;;18.80;99.90;;;;;;5109243;28;20435;-61
2022/11/25 11:43:15;;;;;;;5.05;3.05;;;18.70;99.90;;;;;;5121123;28;19922;-65
2022/11/25 11:46:25;;;;;;;5.40;4.00;;;18.70;99.90;;;;;;5107971;28;20026;-63
2022/11/25 11:49:25;;;;;;;9.63;3.03;;;18.40;99.90;;;;;;5075486;28;20035;-63
2022/11/25 11:52:19;;;;;;;8.18;7.55;;;18.30;99.90;;;;;;5119370;28;20134;-63
2022/11/25 11:55:01;;;;;;;6.85;3.03;;;18.20;99.90;;;;;;5111297;28;20036;-65
2022/11/25 11:57:38;;;;;;;8.80;2.83;;;18.90;99.90;;;;;;5123224;28;20328;-63
2022/11/25 12:00:16;;;;;;;7.97;2.60;;;19.90;99.90;;;;;;5106948;28;20039;-67
2022/11/25 12:03:16;;;;;;;6.72;4.90;;;20.10;99.90;;;;;;5122228;28;20039;-63
2022/11/25 12:05:52;;;;;;;7.00;4.03;;;20.60;99.90;;;;;;5052660;29;20052;-67
2022/11/25 12:09:00;;;;;;;5.18;2.28;;;21.40;99.90;;;;;;5081545;29;20067;-63
2022/11/25 12:11:47;;;;;;;11.20;10.15;;;21.70;99.90;;;;;;5090584;29;20024;-62
2022/11/25 12:14:36;;;;;;;30.30;18.83;;;21.00;99.90;;;;;;5085675;29;20039;-64
2022/11/25 12:17:29;;;;;;;21.33;15.40;;;21.10;99.90;;;;;;5070379;29;20336;-64
2022/11/25 12:20:38;;;;;;;5.63;4.70;;;20.20;99.90;;;;;;5102240;29;20041;-65
2022/11/25 12:23:22;;;;;;;3.13;2.17;;;20.40;99.90;;;;;;5101201;29;20047;-63
2022/11/25 12:26:05;;;;;;;67.05;53.50;;;20.40;99.90;;;;;;5121643;29;20035;-62
2022/11/25 12:28:44;;;;;;;53.20;46.90;;;20.40;99.90;;;;;;5122179;29;20035;-65
2022/11/25 12:31:21;;;;;;;230.40;205.50;;;20.40;99.90;;;;;;5072658;29;20227;-64
2022/11/25 12:34:03;;;;;;;310.98;279.42;;;19.00;99.90;;;;;;5099020;29;20042;-63
2022/11/25 12:36:38;;;;;;;69.30;62.03;;;19.30;99.90;;;;;;5103922;28;20337;-64
2022/11/25 12:39:16;;;;;;;24.70;22.27;;;20.20;99.90;;;;;;5126805;28;20030;-64
2022/11/25 12:41:54;;;;;;;37.17;30.75;;;20.80;99.90;;;;;;5125449;28;20039;-64
2022/11/25 12:44:51;;;;;;;82.82;63.80;;;20.50;99.90;;;;;;5129784;28;20027;-65
2022/11/25 12:47:23;;;;;;;294.67;204.07;;;20.40;99.90;;;;;;5090729;29;20263;-64
2022/11/25 12:50:00;;;;;;;18.25;15.75;;;20.00;99.90;;;;;;5117855;28;20035;-62
2022/11/25 12:52:37;;;;;;;4.97;4.47;;;20.00;99.90;;;;;;5126213;28;20019;-65
2022/11/25 12:55:20;;;;;;;24.33;19.00;;;19.90;99.90;;;;;;5125086;28;20041;-65
2022/11/25 12:58:29;;;;;;;124.15;111.07;;;20.20;99.90;;;;;;5132422;28;20530;-63
2022/11/25 13:01:43;;;;;;;5.53;3.95;;;20.60;99.90;;;;;;5105872;28;20521;-63
2022/11/25 13:04:14;;;;;;;54.75;48.38;;;20.80;99.90;;;;;;5111801;28;20046;-65
2022/11/25 13:07:14;;;;;;;16.63;14.45;;;21.00;99.90;;;;;;5126251;28;20029;-63
2022/11/25 13:10:18;;;;;;;34.85;26.95;;;20.10;99.90;;;;;;5126174;28;20029;-62
2022/11/25 13:13:24;;;;;;;24.92;22.45;;;19.60;99.90;;;;;;5126856;28;20023;-64
2022/11/25 13:15:58;;;;;;;128.32;115.47;;;18.80;99.90;;;;;;5105423;29;20034;-63
2022/11/25 13:18:33;;;;;;;;;;;18.40;99.90;;;;;;5130263;28;20026;-65
2022/11/25 13:21:07;;;;;;;11.17;8.90;;;18.20;99.90;;;;;;5091549;28;19916;-64
2022/11/25 13:23:46;;;;;;;44.92;40.30;;;18.10;99.90;;;;;;5098756;28;20300;-64
2022/11/25 13:26:36;;;;;;;6.25;5.10;;;18.10;99.90;;;;;;5121266;28;20318;-66
2022/11/25 13:29:13;;;;;;;38.88;30.23;;;18.00;99.90;;;;;;5141000;28;20029;-63
2022/11/25 13:32:23;;;;;;;115.47;93.65;;;18.30;99.90;;;;;;5137875;28;20018;-62
2022/11/25 13:35:20;;;;;;;58.05;51.72;;;18.00;99.90;;;;;;5131272;28;20033;-63
2022/11/25 13:37:54;;;;;;;86.78;77.35;;;18.00;99.90;;;;;;5152010;28;20027;-64
2022/11/25 13:40:28;;;;;;;;;;;17.40;99.90;;;;;;5152151;28;20033;-62
2022/11/25 13:43:32;;;;;;;41.10;28.83;;;16.80;99.90;;;;;;5152134;28;19914;-62
2022/11/25 13:46:04;;;;;;;26.38;11.13;;;15.60;99.90;;;;;;5087191;29;20031;-65
2022/11/25 13:48:36;;;;;;;157.35;80.15;;;14.70;99.90;;;;;;5086305;29;20039;-62
2022/11/25 13:51:24;;;;;;;16.35;8.52;;;14.10;99.90;;;;;;5071862;29;20046;-64
2022/11/25 13:54:00;;;;;;;180.18;96.07;;;13.50;99.90;;;;;;5088018;29;20038;-61